sensor_id;sensor_type;location;lat;lon;timestamp;pressure;altitude;pressure_sealevel;temperature;humidity
47738;BME280;33502;47.182;27.506;2023-04-10T00:02:19;100677.22;;;1.25;100.00
47738;BME280;33502;47.182;27.506;2023-04-10T00:04:45;100673.72;;;1.20;100.00
47738;BME280;33502;47.182;27.506;2023-04-10T00:07:11;100670.25;;;1.16;100.00
47738;BME280;33502;47.182;27.506;2023-04-10T00:09:37;100677.19;;;1.16;100.00
47738;BME280;33502;47.182;27.506;2023-04-10T00:12:03;100667.66;;;1.13;100.00
47738;BME280;33502;47.182;27.506;2023-04-10T00:14:29;100671.09;;;1.12;100.00
47738;BME280;33502;47.182;27.506;2023-04-10T00:16:55;100673.75;;;1.19;100.00
47738;BME280;33502;47.182;27.506;2023-04-10T00:19:20;100674.59;;;1.16;100.00
47738;BME280;33502;47.182;27.506;2023-04-10T00:21:46;100673.72;;;1.14;100.00
47738;BME280;33502;47.182;27.506;2023-04-10T00:24:12;100670.25;;;1.12;100.00
47738;BME280;33502;47.182;27.506;2023-04-10T00:26:38;100668.50;;;1.14;100.00
47738;BME280;33502;47.182;27.506;2023-04-10T00:29:04;100668.50;;;1.14;100.00
47738;BME280;33502;47.182;27.506;2023-04-10T00:31:31;100668.50;;;1.14;100.00
47738;BME280;33502;47.182;27.506;2023-04-10T00:33:56;100665.91;;;1.20;100.00
47738;BME280;33502;47.182;27.506;2023-04-10T00:36:22;100664.19;;;1.25;100.00
47738;BME280;33502;47.182;27.506;2023-04-10T00:38:48;100660.69;;;1.29;100.00
47738;BME280;33502;47.182;27.506;2023-04-10T00:41:15;100664.16;;;1.30;100.00
47738;BME280;33502;47.182;27.506;2023-04-10T00:43:42;100667.66;;;1.23;100.00
47738;BME280;33502;47.182;27.506;2023-04-10T00:46:08;100661.56;;;1.16;100.00
47738;BME280;33502;47.182;27.506;2023-04-10T00:48:35;100663.31;;;1.09;100.00
47738;BME280;33502;47.182;27.506;2023-04-10T00:51:01;100664.13;;;1.01;100.00
47738;BME280;33502;47.182;27.506;2023-04-10T00:53:27;100658.91;;;0.94;100.00
47738;BME280;33502;47.182;27.506;2023-04-10T00:55:53;100659.78;;;0.92;100.00
47738;BME280;33502;47.182;27.506;2023-04-10T00:58:20;100652.84;;;0.92;100.00
47738;BME280;33502;47.182;27.506;2023-04-10T01:00:47;100652.81;;;0.88;100.00
47738;BME280;33502;47.182;27.506;2023-04-10T01:03:15;100662.38;;;0.86;100.00
47738;BME280;33502;47.182;27.506;2023-04-10T01:11:00;100663.25;;;0.86;100.00
47738;BME280;33502;47.182;27.506;2023-04-10T01:13:34;100647.59;;;0.89;100.00
47738;BME280;33502;47.182;27.506;2023-04-10T01:16:04;100651.13;;;0.97;100.00
47738;BME280;33502;47.182;27.506;2023-04-10T01:18:38;100649.38;;;1.04;100.00
47738;BME280;33502;47.182;27.506;2023-04-10T01:21:06;100644.16;;;1.07;100.00
47738;BME280;33502;47.182;27.506;2023-04-10T01:24:28;100648.50;;;1.07;100.00
47738;BME280;33502;47.182;27.506;2023-04-10T01:29:10;100647.63;;;1.03;100.00
47738;BME280;33502;47.182;27.506;2023-04-10T01:34:24;100651.13;;;0.97;100.00
47738;BME280;33502;47.182;27.506;2023-04-10T01:39:25;100651.97;;;0.84;100.00
47738;BME280;33502;47.182;27.506;2023-04-10T01:41:53;100648.44;;;0.74;100.00
47738;BME280;33502;47.182;27.506;2023-04-10T01:44:33;100651.03;;;0.65;100.00
47738;BME280;33502;47.182;27.506;2023-04-10T01:47:01;100652.75;;;0.66;100.00
47738;BME280;33502;47.182;27.506;2023-04-10T01:49:29;100648.44;;;0.76;100.00
47738;BME280;33502;47.182;27.506;2023-04-10T01:52:04;100649.34;;;0.87;100.00
47738;BME280;33502;47.182;27.506;2023-04-10T01:54:32;100650.22;;;1.05;100.00
47738;BME280;33502;47.182;27.506;2023-04-10T01:57:00;100650.25;;;1.20;100.00
47738;BME280;33502;47.182;27.506;2023-04-10T01:59:27;100654.63;;;1.43;100.00
47738;BME280;33502;47.182;27.506;2023-04-10T02:01:58;100652.88;;;1.62;100.00
47738;BME280;33502;47.182;27.506;2023-04-10T02:04:24;100652.00;;;1.58;100.00
47738;BME280;33502;47.182;27.506;2023-04-10T02:07:08;100658.09;;;1.37;100.00
47738;BME280;33502;47.182;27.506;2023-04-10T02:12:54;100657.16;;;0.87;100.00
47738;BME280;33502;47.182;27.506;2023-04-10T02:15:27;100656.25;;;0.65;100.00
47738;BME280;33502;47.182;27.506;2023-04-10T02:17:58;100662.28;;;0.52;100.00
47738;BME280;33502;47.182;27.506;2023-04-10T02:20:25;100651.78;;;0.38;100.00
47738;BME280;33502;47.182;27.506;2023-04-10T02:22:52;100652.59;;;0.25;100.00
47738;BME280;33502;47.182;27.506;2023-04-10T02:25:18;100654.34;;;0.24;100.00
47738;BME280;33502;47.182;27.506;2023-04-10T02:27:45;100657.00;;;0.36;100.00
47738;BME280;33502;47.182;27.506;2023-04-10T02:30:11;100661.38;;;0.47;100.00
47738;BME280;33502;47.182;27.506;2023-04-10T02:32:37;100648.38;;;0.54;100.00
47738;BME280;33502;47.182;27.506;2023-04-10T02:35:06;100659.69;;;0.63;100.00
47738;BME280;33502;47.182;27.506;2023-04-10T02:37:32;100651.94;;;0.81;100.00
47738;BME280;33502;47.182;27.506;2023-04-10T02:40:01;100649.34;;;0.81;100.00
47738;BME280;33502;47.182;27.506;2023-04-10T02:42:34;100651.91;;;0.78;100.00
47738;BME280;33502;47.182;27.506;2023-04-10T02:45:00;100649.31;;;0.75;100.00
47738;BME280;33502;47.182;27.506;2023-04-10T02:47:31;100644.09;;;0.75;100.00
47738;BME280;33502;47.182;27.506;2023-04-10T02:49:57;100643.22;;;0.71;100.00
47738;BME280;33502;47.182;27.506;2023-04-10T02:52:26;100647.56;;;0.63;100.00
47738;BME280;33502;47.182;27.506;2023-04-10T02:54:52;100649.22;;;0.53;100.00
47738;BME280;33502;47.182;27.506;2023-04-10T02:57:18;100644.88;;;0.46;100.00
47738;BME280;33502;47.182;27.506;2023-04-10T02:59:44;100647.44;;;0.37;100.00
47738;BME280;33502;47.182;27.506;2023-04-10T03:02:10;100643.97;;;0.33;100.00
47738;BME280;33502;47.182;27.506;2023-04-10T03:04:37;100646.53;;;0.26;100.00
47738;BME280;33502;47.182;27.506;2023-04-10T03:07:03;100647.34;;;0.18;100.00
47738;BME280;33502;47.182;27.506;2023-04-10T03:09:29;100644.72;;;0.11;100.00
47738;BME280;33502;47.182;27.506;2023-04-10T03:11:54;100644.69;;;0.05;100.00
47738;BME280;33502;47.182;27.506;2023-04-10T03:14:21;100642.06;;;-0.02;100.00
47738;BME280;33502;47.182;27.506;2023-04-10T03:16:47;100644.66;;;-0.03;100.00
47738;BME280;33502;47.182;27.506;2023-04-10T03:19:13;100642.06;;;-0.02;100.00
47738;BME280;33502;47.182;27.506;2023-04-10T03:21:39;100632.50;;;-0.01;100.00
47738;BME280;33502;47.182;27.506;2023-04-10T03:24:05;100638.59;;;-0.01;100.00
47738;BME280;33502;47.182;27.506;2023-04-10T03:26:31;100640.34;;;0.04;100.00
47738;BME280;33502;47.182;27.506;2023-04-10T03:28:58;100630.81;;;0.04;100.00
47738;BME280;33502;47.182;27.506;2023-04-10T03:31:24;100629.09;;;0.06;100.00
47738;BME280;33502;47.182;27.506;2023-04-10T03:33:54;100634.28;;;0.06;100.00
47738;BME280;33502;47.182;27.506;2023-04-10T03:36:20;100636.03;;;0.10;100.00
47738;BME280;33502;47.182;27.506;2023-04-10T03:38:46;100640.41;;;0.21;100.00
47738;BME280;33502;47.182;27.506;2023-04-10T03:41:12;100645.69;;;0.36;100.00
47738;BME280;33502;47.182;27.506;2023-04-10T03:43:39;100639.69;;;0.52;100.00
47738;BME280;33502;47.182;27.506;2023-04-10T03:46:06;100637.13;;;0.65;100.00
47738;BME280;33502;47.182;27.506;2023-04-10T03:48:38;100637.16;;;0.75;100.00
47738;BME280;33502;47.182;27.506;2023-04-10T03:51:04;100642.41;;;0.86;100.00
47738;BME280;33502;47.182;27.506;2023-04-10T03:53:30;100637.19;;;1.03;100.00
47738;BME280;33502;47.182;27.506;2023-04-10T03:56:02;100640.69;;;1.25;100.00
47738;BME280;33502;47.182;27.506;2023-04-10T03:58:28;100637.22;;;1.34;100.00
47738;BME280;33502;47.182;27.506;2023-04-10T04:00:55;100636.34;;;1.36;100.00
47738;BME280;33502;47.182;27.506;2023-04-10T04:03:32;100640.69;;;1.31;100.00
47738;BME280;33502;47.182;27.506;2023-04-10T04:05:57;100641.56;;;1.30;100.00
47738;BME280;33502;47.182;27.506;2023-04-10T04:08:34;100650.25;;;1.45;100.00
47738;BME280;33502;47.182;27.506;2023-04-10T04:11:23;100649.28;;;2.12;100.00
47738;BME280;33502;47.182;27.506;2023-04-10T04:14:02;100648.19;;;2.71;100.00
47738;BME280;33502;47.182;27.506;2023-04-10T04:17:03;100655.59;;;3.36;100.00
47738;BME280;33502;47.182;27.506;2023-04-10T04:19:33;100657.75;;;3.88;100.00
47738;BME280;33502;47.182;27.506;2023-04-10T04:22:08;100657.88;;;4.57;100.00
47738;BME280;33502;47.182;27.506;2023-04-10T04:24:52;100663.03;;;5.23;100.00
47738;BME280;33502;47.182;27.506;2023-04-10T04:27:30;100662.91;;;5.85;100.00
47738;BME280;33502;47.182;27.506;2023-04-10T04:30:14;100661.38;;;6.23;100.00
47738;BME280;33502;47.182;27.506;2023-04-10T04:32:48;100667.19;;;6.39;100.00
47738;BME280;33502;47.182;27.506;2023-04-10T04:35:31;100667.28;;;6.77;100.00
47738;BME280;33502;47.182;27.506;2023-04-10T04:38:20;100666.47;;;7.12;100.00
47738;BME280;33502;47.182;27.506;2023-04-10T04:41:15;100662.88;;;7.88;100.00
47738;BME280;33502;47.182;27.506;2023-04-10T04:44:08;100674.34;;;8.53;100.00
47738;BME280;33502;47.182;27.506;2023-04-10T04:47:10;100668.06;;;8.87;100.00
47738;BME280;33502;47.182;27.506;2023-04-10T04:49:59;100678.31;;;9.26;100.00
47738;BME280;33502;47.182;27.506;2023-04-10T04:52:44;100677.09;;;9.63;100.00
47738;BME280;33502;47.182;27.506;2023-04-10T04:55:25;100672.06;;;9.28;100.00
47738;BME280;33502;47.182;27.506;2023-04-10T04:58:02;100682.63;;;9.28;100.00
47738;BME280;33502;47.182;27.506;2023-04-10T05:01:01;100672.13;;;9.53;100.00
47738;BME280;33502;47.182;27.506;2023-04-10T05:03:47;100679.91;;;9.58;100.00
47738;BME280;33502;47.182;27.506;2023-04-10T05:06:32;100690.97;;;9.71;100.00
47738;BME280;33502;47.182;27.506;2023-04-10T05:09:12;100689.91;;;9.76;100.00
47738;BME280;33502;47.182;27.506;2023-04-10T05:11:47;100685.13;;;10.13;97.58
47738;BME280;33502;47.182;27.506;2023-04-10T05:14:37;100683.44;;;10.35;94.53
47738;BME280;33502;47.182;27.506;2023-04-10T05:17:19;100685.28;;;10.58;90.97
47738;BME280;33502;47.182;27.506;2023-04-10T05:20:03;100695.06;;;10.80;88.39
47738;BME280;33502;47.182;27.506;2023-04-10T05:22:49;100693.75;;;10.68;84.52
47738;BME280;33502;47.182;27.506;2023-04-10T05:25:34;100699.13;;;10.65;85.91
47738;BME280;33502;47.182;27.506;2023-04-10T05:28:18;100694.81;;;10.86;86.45
47738;BME280;33502;47.182;27.506;2023-04-10T05:31:17;100701.88;;;11.09;84.84
47738;BME280;33502;47.182;27.506;2023-04-10T05:33:49;100697.22;;;11.60;80.87
47738;BME280;33502;47.182;27.506;2023-04-10T05:36:23;100700.91;;;11.78;77.82
47738;BME280;33502;47.182;27.506;2023-04-10T05:39:14;100700.56;;;11.86;76.77
47738;BME280;33502;47.182;27.506;2023-04-10T05:42:09;100702.69;;;12.20;76.07
47738;BME280;33502;47.182;27.506;2023-04-10T05:44:56;100695.13;;;12.71;71.98
47738;BME280;33502;47.182;27.506;2023-04-10T05:47:40;100692.59;;;13.25;69.97
47738;BME280;33502;47.182;27.506;2023-04-10T05:50:27;100697.44;;;13.72;66.37
47738;BME280;33502;47.182;27.506;2023-04-10T05:53:13;100699.50;;;13.48;67.26
47738;BME280;33502;47.182;27.506;2023-04-10T05:56:08;100691.00;;;13.59;66.95
47738;BME280;33502;47.182;27.506;2023-04-10T05:58:45;100690.72;;;14.00;66.13
47738;BME280;33502;47.182;27.506;2023-04-10T06:01:13;100691.31;;;14.40;63.71
47738;BME280;33502;47.182;27.506;2023-04-10T06:03:48;100697.69;;;14.53;62.99
47738;BME280;33502;47.182;27.506;2023-04-10T06:06:15;100693.47;;;14.66;62.23
47738;BME280;33502;47.182;27.506;2023-04-10T06:08:41;100698.22;;;15.57;61.56
47738;BME280;33502;47.182;27.506;2023-04-10T06:11:07;100696.28;;;16.21;58.22
47738;BME280;33502;47.182;27.506;2023-04-10T06:13:34;100690.38;;;16.44;57.08
47738;BME280;33502;47.182;27.506;2023-04-10T06:16:01;100701.28;;;16.41;55.28
47738;BME280;33502;47.182;27.506;2023-04-10T06:18:28;100691.16;;;16.32;54.67
47738;BME280;33502;47.182;27.506;2023-04-10T06:20:54;100697.72;;;16.27;55.39
47738;BME280;33502;47.182;27.506;2023-04-10T06:23:22;100689.66;;;16.57;54.71
47738;BME280;33502;47.182;27.506;2023-04-10T06:25:48;100696.91;;;16.55;53.74
47738;BME280;33502;47.182;27.506;2023-04-10T06:28:14;100689.19;;;16.93;53.48
47738;BME280;33502;47.182;27.506;2023-04-10T06:30:42;100697.47;;;17.72;52.81
47738;BME280;33502;47.182;27.506;2023-04-10T06:33:08;100696.19;;;18.94;48.28
47738;BME280;33502;47.182;27.506;2023-04-10T06:35:38;100698.56;;;18.35;47.63
47738;BME280;33502;47.182;27.506;2023-04-10T06:38:06;100696.34;;;17.61;50.03
47738;BME280;33502;47.182;27.506;2023-04-10T06:40:33;100692.84;;;18.01;49.59
47738;BME280;33502;47.182;27.506;2023-04-10T06:43:00;100685.91;;;17.71;48.74
47738;BME280;33502;47.182;27.506;2023-04-10T06:45:35;100688.13;;;17.65;49.75
47738;BME280;33502;47.182;27.506;2023-04-10T06:48:01;100681.41;;;18.12;49.71
47738;BME280;33502;47.182;27.506;2023-04-10T06:50:27;100690.31;;;18.38;48.14
47738;BME280;33502;47.182;27.506;2023-04-10T06:52:53;100690.19;;;18.39;48.66
47738;BME280;33502;47.182;27.506;2023-04-10T06:55:20;100682.28;;;18.25;48.15
47738;BME280;33502;47.182;27.506;2023-04-10T06:57:46;100687.72;;;18.24;48.13
47738;BME280;33502;47.182;27.506;2023-04-10T07:00:12;100691.41;;;18.61;47.89
47738;BME280;33502;47.182;27.506;2023-04-10T07:02:38;100695.44;;;19.29;46.51
47738;BME280;33502;47.182;27.506;2023-04-10T07:05:04;100689.00;;;20.15;45.98
47738;BME280;33502;47.182;27.506;2023-04-10T07:07:30;100691.50;;;21.31;43.73
47738;BME280;33502;47.182;27.506;2023-04-10T07:09:55;100688.09;;;21.18;42.33
47738;BME280;33502;47.182;27.506;2023-04-10T07:12:22;100701.06;;;20.57;43.46
47738;BME280;33502;47.182;27.506;2023-04-10T07:14:48;100699.34;;;20.56;43.52
47738;BME280;33502;47.182;27.506;2023-04-10T07:17:14;100697.25;;;20.48;44.41
47738;BME280;33502;47.182;27.506;2023-04-10T07:19:39;100691.16;;;19.88;45.96
47738;BME280;33502;47.182;27.506;2023-04-10T07:22:05;100691.66;;;21.07;43.83
47738;BME280;33502;47.182;27.506;2023-04-10T07:24:31;100690.69;;;21.75;42.15
47738;BME280;33502;47.182;27.506;2023-04-10T07:26:57;100687.97;;;22.28;41.18
47738;BME280;33502;47.182;27.506;2023-04-10T07:29:25;100681.28;;;23.24;40.24
47738;BME280;33502;47.182;27.506;2023-04-10T07:31:50;100682.69;;;23.19;39.73
47738;BME280;33502;47.182;27.506;2023-04-10T07:34:16;100680.47;;;23.43;39.54
47738;BME280;33502;47.182;27.506;2023-04-10T07:36:42;100679.47;;;22.94;40.01
47738;BME280;33502;47.182;27.506;2023-04-10T07:39:08;100667.84;;;22.32;42.78
47738;BME280;33502;47.182;27.506;2023-04-10T07:41:34;100668.19;;;23.10;41.14
47738;BME280;33502;47.182;27.506;2023-04-10T07:44:00;100664.81;;;23.18;40.58
47738;BME280;33502;47.182;27.506;2023-04-10T07:46:26;100663.72;;;22.59;40.31
47738;BME280;33502;47.182;27.506;2023-04-10T07:48:52;100670.00;;;22.69;40.96
47738;BME280;33502;47.182;27.506;2023-04-10T07:51:20;100668.16;;;22.39;41.18
47738;BME280;33502;47.182;27.506;2023-04-10T07:53:46;100667.09;;;21.88;41.73
47738;BME280;33502;47.182;27.506;2023-04-10T07:56:18;100662.88;;;21.95;41.50
47738;BME280;33502;47.182;27.506;2023-04-10T07:58:45;100657.94;;;21.79;42.27
47738;BME280;33502;47.182;27.506;2023-04-10T08:01:12;100659.81;;;22.82;40.88
47738;BME280;33502;47.182;27.506;2023-04-10T08:03:44;100665.09;;;23.24;40.25
47738;BME280;33502;47.182;27.506;2023-04-10T08:06:10;100658.03;;;23.82;40.07
47738;BME280;33502;47.182;27.506;2023-04-10T08:08:37;100667.28;;;23.99;38.61
47738;BME280;33502;47.182;27.506;2023-04-10T08:11:07;100658.88;;;24.02;37.50
47738;BME280;33502;47.182;27.506;2023-04-10T08:13:33;100660.31;;;23.87;38.93
47738;BME280;33502;47.182;27.506;2023-04-10T08:15:59;100656.47;;;23.89;39.19
47738;BME280;33502;47.182;27.506;2023-04-10T08:18:24;100653.88;;;23.49;38.82
47738;BME280;33502;47.182;27.506;2023-04-10T08:20:50;100647.91;;;22.95;40.73
47738;BME280;33502;47.182;27.506;2023-04-10T08:23:16;100652.16;;;22.78;42.58
47738;BME280;33502;47.182;27.506;2023-04-10T08:25:42;100645.78;;;23.68;41.17
47738;BME280;33502;47.182;27.506;2023-04-10T08:28:07;100647.41;;;24.28;39.10
47738;BME280;33502;47.182;27.506;2023-04-10T08:30:33;100644.78;;;24.65;39.11
47738;BME280;33502;47.182;27.506;2023-04-10T08:32:59;100654.66;;;24.84;38.50
47738;BME280;33502;47.182;27.506;2023-04-10T08:35:25;100649.88;;;24.11;38.49
47738;BME280;33502;47.182;27.506;2023-04-10T08:37:50;100650.75;;;23.53;39.64
47738;BME280;33502;47.182;27.506;2023-04-10T08:40:16;100642.31;;;23.17;40.69
47738;BME280;33502;47.182;27.506;2023-04-10T08:42:42;100644.38;;;22.54;41.75
47738;BME280;33502;47.182;27.506;2023-04-10T08:45:08;100649.47;;;22.87;42.06
47738;BME280;33502;47.182;27.506;2023-04-10T08:47:35;100647.47;;;23.40;40.11
47738;BME280;33502;47.182;27.506;2023-04-10T08:50:09;100648.00;;;23.14;40.10
47738;BME280;33502;47.182;27.506;2023-04-10T08:52:42;100647.91;;;23.45;39.76
47738;BME280;33502;47.182;27.506;2023-04-10T08:55:08;100639.22;;;23.41;40.74
47738;BME280;33502;47.182;27.506;2023-04-10T08:57:37;100634.31;;;23.06;42.09
47738;BME280;33502;47.182;27.506;2023-04-10T09:00:04;100631.56;;;22.46;41.63
47738;BME280;33502;47.182;27.506;2023-04-10T09:02:31;100629.91;;;22.55;42.79
47738;BME280;33502;47.182;27.506;2023-04-10T09:04:58;100627.09;;;21.93;42.46
47738;BME280;33502;47.182;27.506;2023-04-10T09:07:25;100626.25;;;21.28;45.11
47738;BME280;33502;47.182;27.506;2023-04-10T09:09:51;100621.22;;;20.80;45.86
47738;BME280;33502;47.182;27.506;2023-04-10T09:12:17;100624.88;;;20.90;47.93
47738;BME280;33502;47.182;27.506;2023-04-10T09:14:43;100628.06;;;20.95;46.29
47738;BME280;33502;47.182;27.506;2023-04-10T09:17:14;100628.91;;;20.96;46.48
47738;BME280;33502;47.182;27.506;2023-04-10T09:19:42;100622.91;;;20.92;46.81
47738;BME280;33502;47.182;27.506;2023-04-10T09:22:08;100621.34;;;20.89;46.69
47738;BME280;33502;47.182;27.506;2023-04-10T09:24:35;100615.47;;;20.73;48.62
47738;BME280;33502;47.182;27.506;2023-04-10T09:27:03;100610.84;;;20.52;46.62
47738;BME280;33502;47.182;27.506;2023-04-10T09:29:40;100611.25;;;19.90;50.05
47738;BME280;33502;47.182;27.506;2023-04-10T09:32:06;100609.31;;;19.68;51.33
47738;BME280;33502;47.182;27.506;2023-04-10T09:34:32;100602.56;;;19.86;48.54
47738;BME280;33502;47.182;27.506;2023-04-10T09:36:59;100605.47;;;19.48;48.10
47738;BME280;33502;47.182;27.506;2023-04-10T09:39:36;100602.53;;;19.40;50.96
47738;BME280;33502;47.182;27.506;2023-04-10T09:42:05;100597.50;;;19.70;51.71
47738;BME280;33502;47.182;27.506;2023-04-10T09:44:36;100598.94;;;19.99;50.99
47738;BME280;33502;47.182;27.506;2023-04-10T09:47:20;100600.56;;;20.12;50.15
47738;BME280;33502;47.182;27.506;2023-04-10T09:49:52;100590.28;;;20.40;50.12
47738;BME280;33502;47.182;27.506;2023-04-10T09:52:21;100595.16;;;20.46;49.63
47738;BME280;33502;47.182;27.506;2023-04-10T09:54:47;100588.59;;;20.39;46.81
47738;BME280;33502;47.182;27.506;2023-04-10T09:57:17;100597.25;;;20.65;45.74
47738;BME280;33502;47.182;27.506;2023-04-10T09:59:49;100591.25;;;20.05;46.94
47738;BME280;33502;47.182;27.506;2023-04-10T10:02:19;100590.94;;;19.74;49.07
47738;BME280;33502;47.182;27.506;2023-04-10T10:04:46;100591.06;;;19.73;46.54
47738;BME280;33502;47.182;27.506;2023-04-10T10:07:17;100589.78;;;19.66;47.01
47738;BME280;33502;47.182;27.506;2023-04-10T10:09:44;100595.53;;;19.61;46.64
47738;BME280;33502;47.182;27.506;2023-04-10T10:12:11;100589.28;;;19.96;47.84
47738;BME280;33502;47.182;27.506;2023-04-10T10:14:51;100579.03;;;20.12;49.25
47738;BME280;33502;47.182;27.506;2023-04-10T10:17:19;100579.28;;;20.09;49.10
47738;BME280;33502;47.182;27.506;2023-04-10T10:20:08;100581.22;;;20.07;47.73
47738;BME280;33502;47.182;27.506;2023-04-10T10:22:35;100579.72;;;19.81;46.25
47738;BME280;33502;47.182;27.506;2023-04-10T10:25:02;100573.53;;;20.48;44.21
47738;BME280;33502;47.182;27.506;2023-04-10T10:27:30;100569.88;;;20.38;48.29
47738;BME280;33502;47.182;27.506;2023-04-10T10:29:59;100564.09;;;20.87;46.84
47738;BME280;33502;47.182;27.506;2023-04-10T10:32:26;100564.53;;;21.04;44.98
47738;BME280;33502;47.182;27.506;2023-04-10T10:34:52;100570.50;;;21.07;45.69
47738;BME280;33502;47.182;27.506;2023-04-10T10:37:19;100560.66;;;20.97;44.40
47738;BME280;33502;47.182;27.506;2023-04-10T10:40:09;100564.75;;;20.68;47.17
47738;BME280;33502;47.182;27.506;2023-04-10T10:42:44;100555.22;;;20.64;48.64
47738;BME280;33502;47.182;27.506;2023-04-10T10:47:46;100549.91;;;20.85;47.19
47738;BME280;33502;47.182;27.506;2023-04-10T10:50:13;100550.53;;;20.78;44.79
47738;BME280;33502;47.182;27.506;2023-04-10T10:52:42;100550.13;;;20.93;45.47
47738;BME280;33502;47.182;27.506;2023-04-10T10:57:52;100546.06;;;20.99;45.27
47738;BME280;33502;47.182;27.506;2023-04-10T11:00:23;100542.56;;;21.20;45.77
47738;BME280;33502;47.182;27.506;2023-04-10T11:05:59;100532.25;;;20.60;46.23
47738;BME280;33502;47.182;27.506;2023-04-10T11:11:09;100527.56;;;21.38;48.87
47738;BME280;33502;47.182;27.506;2023-04-10T11:19:01;100525.06;;;21.88;45.87
47738;BME280;33502;47.182;27.506;2023-04-10T11:21:27;100518.03;;;21.55;43.19
47738;BME280;33502;47.182;27.506;2023-04-10T11:29:00;100523.81;;;21.93;42.35
47738;BME280;33502;47.182;27.506;2023-04-10T11:31:26;100521.34;;;21.59;42.34
47738;BME280;33502;47.182;27.506;2023-04-10T11:36:24;100521.38;;;21.89;39.96
47738;BME280;33502;47.182;27.506;2023-04-10T11:39:04;100518.56;;;21.70;40.27
47738;BME280;33502;47.182;27.506;2023-04-10T11:41:32;100515.94;;;22.10;40.87
47738;BME280;33502;47.182;27.506;2023-04-10T11:43:59;100515.13;;;22.20;37.71
47738;BME280;33502;47.182;27.506;2023-04-10T11:46:26;100510.25;;;22.35;37.43
47738;BME280;33502;47.182;27.506;2023-04-10T11:49:03;100516.69;;;22.13;40.50
47738;BME280;33502;47.182;27.506;2023-04-10T11:51:29;100505.50;;;21.65;41.30
47738;BME280;33502;47.182;27.506;2023-04-10T11:54:23;100506.88;;;21.39;42.39
47738;BME280;33502;47.182;27.506;2023-04-10T11:57:03;100507.84;;;21.59;43.90
47738;BME280;33502;47.182;27.506;2023-04-10T11:59:32;100509.56;;;21.81;41.43
47738;BME280;33502;47.182;27.506;2023-04-10T12:02:05;100503.97;;;21.30;41.90
47738;BME280;33502;47.182;27.506;2023-04-10T12:04:31;100493.97;;;21.21;43.48
47738;BME280;33502;47.182;27.506;2023-04-10T12:06:57;100500.75;;;20.83;42.22
47738;BME280;33502;47.182;27.506;2023-04-10T12:09:23;100496.22;;;20.84;44.22
47738;BME280;33502;47.182;27.506;2023-04-10T12:11:51;100496.13;;;20.74;42.06
47738;BME280;33502;47.182;27.506;2023-04-10T12:14:20;100496.63;;;20.68;42.60
47738;BME280;33502;47.182;27.506;2023-04-10T12:16:47;100486.94;;;21.09;41.79
47738;BME280;33502;47.182;27.506;2023-04-10T12:19:14;100489.97;;;21.16;41.94
47738;BME280;33502;47.182;27.506;2023-04-10T12:21:41;100486.78;;;21.64;40.83
47738;BME280;33502;47.182;27.506;2023-04-10T12:24:08;100485.13;;;22.03;39.08
47738;BME280;33502;47.182;27.506;2023-04-10T12:26:34;100481.97;;;21.98;39.46
47738;BME280;33502;47.182;27.506;2023-04-10T12:28:59;100472.44;;;21.63;41.46
47738;BME280;33502;47.182;27.506;2023-04-10T12:31:27;100475.41;;;21.60;41.60
47738;BME280;33502;47.182;27.506;2023-04-10T12:33:53;100468.16;;;21.61;42.74
47738;BME280;33502;47.182;27.506;2023-04-10T12:36:25;100474.75;;;21.47;40.16
47738;BME280;33502;47.182;27.506;2023-04-10T12:38:58;100465.19;;;21.43;40.55
47738;BME280;33502;47.182;27.506;2023-04-10T12:41:28;100464.22;;;21.23;40.00
47738;BME280;33502;47.182;27.506;2023-04-10T12:44:12;100461.03;;;21.50;39.96
47738;BME280;33502;47.182;27.506;2023-04-10T12:46:39;100454.41;;;21.85;41.06
47738;BME280;33502;47.182;27.506;2023-04-10T12:49:23;100447.44;;;22.23;39.62
47738;BME280;33502;47.182;27.506;2023-04-10T12:51:50;100449.41;;;21.80;38.21
47738;BME280;33502;47.182;27.506;2023-04-10T12:54:33;100450.78;;;21.44;39.68
47738;BME280;33502;47.182;27.506;2023-04-10T12:57:00;100440.97;;;21.22;41.42
47738;BME280;33502;47.182;27.506;2023-04-10T12:59:28;100441.22;;;20.98;40.51
47738;BME280;33502;47.182;27.506;2023-04-10T13:01:55;100439.81;;;20.82;40.06
47738;BME280;33502;47.182;27.506;2023-04-10T13:04:21;100431.34;;;20.54;41.36
47738;BME280;33502;47.182;27.506;2023-04-10T13:06:48;100435.66;;;21.31;39.43
47738;BME280;33502;47.182;27.506;2023-04-10T13:09:17;100437.50;;;21.52;40.33
47738;BME280;33502;47.182;27.506;2023-04-10T13:11:43;100428.84;;;21.48;40.31
47738;BME280;33502;47.182;27.506;2023-04-10T13:14:09;100427.81;;;21.49;38.92
47738;BME280;33502;47.182;27.506;2023-04-10T13:16:35;100422.84;;;21.45;38.57
47738;BME280;33502;47.182;27.506;2023-04-10T13:19:01;100423.03;;;20.90;38.39
47738;BME280;33502;47.182;27.506;2023-04-10T13:21:28;100409.66;;;20.24;38.55
47738;BME280;33502;47.182;27.506;2023-04-10T13:23:54;100413.72;;;20.18;41.06
47738;BME280;33502;47.182;27.506;2023-04-10T13:26:21;100412.78;;;20.40;40.98
47738;BME280;33502;47.182;27.506;2023-04-10T13:28:47;100414.56;;;20.73;37.93
47738;BME280;33502;47.182;27.506;2023-04-10T13:31:13;100405.97;;;20.36;40.02
47738;BME280;33502;47.182;27.506;2023-04-10T13:33:47;100408.75;;;20.34;40.10
47738;BME280;33502;47.182;27.506;2023-04-10T13:36:13;100402.56;;;20.23;40.39
47738;BME280;33502;47.182;27.506;2023-04-10T13:38:40;100399.78;;;20.68;40.15